createdAt,value
2022-08-04T00:00:45.756Z,97402.22
2022-08-04T00:03:15.757Z,97398.63
2022-08-04T00:05:54.065Z,97399.63
2022-08-04T00:08:27.203Z,97405.03
2022-08-04T00:10:56.184Z,97399.63
2022-08-04T00:13:26.163Z,97402.34
2022-08-04T00:15:54.764Z,97395.19
2022-08-04T00:18:24.663Z,97395.19
2022-08-04T00:20:52.823Z,97398.03
2022-08-04T00:23:20.915Z,97398.03
2022-08-04T00:25:49.053Z,97395.47
2022-08-04T00:28:17.187Z,97390.16
2022-08-04T00:30:46.694Z,97393.72
2022-08-04T00:33:14.824Z,97397.44
2022-08-04T00:35:42.997Z,97395.69
2022-08-04T00:38:11.141Z,97400.22
2022-08-04T00:40:44.487Z,97399.38
2022-08-04T00:43:16.537Z,97394.94
2022-08-04T00:46:26.081Z,97392.25
2022-08-04T00:49:03.851Z,97399.50
2022-08-04T00:51:38.423Z,97399.63
2022-08-04T00:54:10.384Z,97397.91
2022-08-04T00:57:03.889Z,97397.91
2022-08-04T00:59:39.944Z,97397.03
2022-08-04T01:02:12.713Z,97397.91
2022-08-04T01:04:47.637Z,97388.94
2022-08-04T01:07:33.509Z,97393.47
2022-08-04T01:10:05.185Z,97389.91
2022-08-04T01:12:55.708Z,97386.38
2022-08-04T01:15:27.374Z,97388.19
2022-08-04T01:18:01.238Z,97381.06
2022-08-04T01:20:34.857Z,97383.75
2022-08-04T01:23:38.403Z,97383.75
2022-08-04T01:26:42.496Z,97385.63
2022-08-04T01:29:24.210Z,97381.31
2022-08-04T01:32:05.628Z,97377.63
2022-08-04T01:34:37.262Z,97384.91
2022-08-04T01:37:08.784Z,97378.63
2022-08-04T01:39:43.384Z,97375.06
2022-08-04T01:42:12.551Z,97374.19
2022-08-04T01:44:42.491Z,97373.34
2022-08-04T01:47:10.884Z,97377.00
2022-08-04T01:49:40.681Z,97374.44
2022-08-04T01:52:10.542Z,97367.22
2022-08-04T01:54:40.067Z,97369.03
2022-08-04T01:57:46.103Z,97366.34
2022-08-04T01:59:58.254Z,97367.31
2022-08-04T02:02:26.473Z,97368.16
2022-08-04T02:04:54.699Z,97370.00
2022-08-04T02:07:29.521Z,97362.78
2022-08-04T02:10:06.852Z,97361.91
2022-08-04T02:12:41.840Z,97366.47
2022-08-04T02:15:19.787Z,97361.06
2022-08-04T02:17:53.225Z,97363.78
2022-08-04T02:20:25.103Z,97360.19
2022-08-04T02:23:00.421Z,97362.03
2022-08-04T02:25:29.712Z,97353.94
2022-08-04T02:28:05.522Z,97357.63
2022-08-04T02:30:40.817Z,97351.34
2022-08-04T02:33:08.992Z,97355.88
2022-08-04T02:35:37.864Z,97351.34
2022-08-04T02:38:14.399Z,97354.19
2022-08-04T02:40:43.064Z,97351.50
2022-08-04T02:43:11.379Z,97345.22
2022-08-04T02:45:40.944Z,97347.91
2022-08-04T02:48:30.283Z,97347.00
2022-08-04T02:50:57.187Z,97342.59
2022-08-04T02:53:25.645Z,97337.22
2022-08-04T02:55:56.662Z,97339.91
2022-08-04T02:58:24.917Z,97341.75
2022-08-04T03:00:54.566Z,97334.50
2022-08-04T03:03:26.131Z,97342.72
2022-08-04T03:06:19.080Z,97337.31
2022-08-04T03:09:12.279Z,97336.47
2022-08-04T03:12:05.113Z,97334.72
2022-08-04T03:14:47.520Z,97334.72
2022-08-04T03:17:52.673Z,97336.56
2022-08-04T03:20:35.240Z,97330.34
2022-08-04T03:23:30.826Z,97331.28
2022-08-04T03:26:28.773Z,97323.19
2022-08-04T03:29:26.046Z,97327.72
2022-08-04T03:32:41.437Z,97323.19
2022-08-04T03:35:31.853Z,97322.47
2022-08-04T03:38:08.833Z,97327.84
2022-08-04T03:40:41.941Z,97327.00
2022-08-04T03:43:57.581Z,97320.75
2022-08-04T03:46:52.737Z,97328.84
2022-08-04T03:49:56.696Z,97323.56
2022-08-04T03:53:02.388Z,97323.56
2022-08-04T03:55:54.248Z,97327.13
2022-08-04T03:58:54.938Z,97326.38
2022-08-04T04:01:41.570Z,97327.25
2022-08-04T04:04:50.125Z,97328.13
2022-08-04T04:07:56.495Z,97328.13
2022-08-04T04:10:42.194Z,97322.81
2022-08-04T04:13:30.996Z,97327.38
2022-08-04T04:16:15.428Z,97332.78
2022-08-04T04:18:53.542Z,97329.22
2022-08-04T04:21:48.120Z,97334.63
2022-08-04T04:24:34.113Z,97333.75
2022-08-04T04:27:10.189Z,97333.75
2022-08-04T04:29:53.210Z,97334.63
2022-08-04T04:32:25.567Z,97334.63
2022-08-04T04:35:21.020Z,97341.84
2022-08-04T04:38:18.198Z,97342.59
2022-08-04T04:40:51.816Z,97336.22
2022-08-04T04:43:51.634Z,97340.97
2022-08-04T04:46:26.894Z,97345.28
2022-08-04T04:48:58.974Z,97343.91
2022-08-04T04:51:30.285Z,97346.00
2022-08-04T04:54:02.239Z,97346.25
2022-08-04T04:56:33.729Z,97343.03
2022-08-04T04:59:03.314Z,97341.47
2022-08-04T05:01:59.291Z,97337.16
2022-08-04T05:04:35.735Z,97343.50
2022-08-04T05:07:45.121Z,97343.50
2022-08-04T05:10:20.065Z,97340.94
2022-08-04T05:14:33.264Z,97348.28
2022-08-04T05:15:58.106Z,97345.72
2022-08-04T05:18:28.233Z,97341.53
2022-08-04T05:20:58.167Z,97338.22
2022-08-04T05:23:27.879Z,97342.63
2022-08-04T05:25:59.936Z,97333.66
2022-08-04T05:28:30.123Z,97337.84
2022-08-04T05:31:01.668Z,97336.03
2022-08-04T05:33:33.980Z,97339.59
2022-08-04T05:36:23.554Z,97339.72
2022-08-04T05:38:53.909Z,97340.56
2022-08-04T05:41:22.369Z,97337.84
2022-08-04T05:43:50.458Z,97337.00
2022-08-04T05:46:19.946Z,97338.84
2022-08-04T05:48:48.072Z,97337.09
2022-08-04T05:51:16.364Z,97332.56
2022-08-04T05:53:44.764Z,97336.28
2022-08-04T05:56:12.978Z,97334.41
2022-08-04T05:58:41.124Z,97332.72
2022-08-04T06:01:10.634Z,97340.81
2022-08-04T06:03:40.264Z,97329.13
2022-08-04T06:06:09.407Z,97336.38
2022-08-04T06:08:37.753Z,97331.97
2022-08-04T06:11:07.076Z,97330.97
2022-08-04T06:13:45.330Z,97342.50
2022-08-04T06:16:30.011Z,97329.13
2022-08-04T06:20:00.846Z,97333.56
2022-08-04T06:21:55.143Z,97329.75
2022-08-04T06:24:25.252Z,97329.41
2022-08-04T06:26:53.383Z,97325.63
2022-08-04T06:29:26.744Z,97329.19
2022-08-04T06:32:28.436Z,97323.78
2022-08-04T06:34:53.784Z,97328.19
2022-08-04T06:37:42.438Z,97320.97
2022-08-04T06:40:29.666Z,97322.78
2022-08-04T06:42:59.428Z,97324.53
2022-08-04T06:45:27.610Z,97319.75
2022-08-04T06:47:55.705Z,97325.88
2022-08-04T06:51:24.794Z,97318.66
2022-08-04T06:53:13.509Z,97320.34
2022-08-04T06:55:41.765Z,97322.09
2022-08-04T06:58:09.927Z,97319.13
2022-08-04T07:00:38.025Z,97320.59
2022-08-04T07:03:07.199Z,97312.25
2022-08-04T07:05:36.708Z,97313.84
2022-08-04T07:08:06.056Z,97304.66
2022-08-04T07:10:34.203Z,97309.94
2022-08-04T07:13:02.584Z,97302.56
2022-08-04T07:15:30.696Z,97305.13
2022-08-04T07:18:00.308Z,97305.88
2022-08-04T07:20:34.996Z,97302.94
2022-08-04T07:23:05.971Z,97303.69
2022-08-04T07:25:59.760Z,97302.59
2022-08-04T07:28:23.471Z,97309.56
2022-08-04T07:30:51.738Z,97302.19
2022-08-04T07:33:19.926Z,97310.19
2022-08-04T07:36:09.738Z,97309.97
2022-08-04T07:38:48.673Z,97301.72
2022-08-04T07:41:41.406Z,97306.03
2022-08-04T07:44:11.017Z,97311.22
2022-08-04T07:46:39.075Z,97301.13
2022-08-04T07:49:07.203Z,97306.41
2022-08-04T07:51:36.386Z,97296.34
2022-08-04T07:54:06.292Z,97310.72
2022-08-04T07:56:34.616Z,97306.28
2022-08-04T07:59:02.870Z,97295.34
2022-08-04T08:01:31.149Z,97298.91
2022-08-04T08:04:00.590Z,97298.91
2022-08-04T08:06:32.846Z,97291.66
2022-08-04T08:09:13.746Z,97297.69
2022-08-04T08:12:35.579Z,97298.53
2022-08-04T08:14:32.276Z,97300.25
2022-08-04T08:17:01.615Z,97301.13
2022-08-04T08:19:29.973Z,97297.69
2022-08-04T08:21:59.231Z,97298.53
2022-08-04T08:24:28.075Z,97295.56
2022-08-04T08:27:09.432Z,97295.47
2022-08-04T08:29:44.106Z,97299.88
2022-08-04T08:32:14.160Z,97296.22
2022-08-04T08:34:42.293Z,97295.06
2022-08-04T08:37:13.836Z,97295.22
2022-08-04T08:39:43.966Z,97295.06
2022-08-04T08:42:40.869Z,97290.53
2022-08-04T08:45:19.225Z,97293.25
2022-08-04T08:48:11.115Z,97298.50
2022-08-04T08:51:13.056Z,97301.94
2022-08-04T08:53:51.204Z,97308.09
2022-08-04T08:56:31.125Z,97302.81
2022-08-04T08:59:28.072Z,97306.25
2022-08-04T09:02:18.067Z,97308.00
2022-08-04T09:04:57.159Z,97306.03
2022-08-04T09:07:44.837Z,97308.44
2022-08-04T09:10:16.751Z,97310.91
2022-08-04T09:12:48.147Z,97308.94
2022-08-04T09:15:20.220Z,97305.13
2022-08-04T09:17:49.998Z,97308.69
2022-08-04T09:20:23.512Z,97303.03
2022-08-04T09:22:53.113Z,97307.31
2022-08-04T09:25:25.269Z,97300.81
2022-08-04T09:27:54.867Z,97301.53
2022-08-04T09:30:27.899Z,97296.13
2022-08-04T09:32:59.581Z,97291.00
2022-08-04T09:35:34.706Z,97297.22
2022-08-04T09:38:07.268Z,97293.69
2022-08-04T09:40:53.596Z,97288.28
2022-08-04T09:44:43.072Z,97289.13
2022-08-04T09:46:24.759Z,97288.28
2022-08-04T09:48:54.532Z,97289.13
2022-08-04T09:51:26.968Z,97285.59
2022-08-04T09:54:30.135Z,97287.41
2022-08-04T09:57:02.317Z,97281.16
2022-08-04T09:59:33.392Z,97276.59
2022-08-04T10:02:10.489Z,97279.31
2022-08-04T10:04:38.613Z,97272.16
2022-08-04T10:07:17.197Z,97273.91
2022-08-04T10:09:49.656Z,97267.63
2022-08-04T10:12:30.173Z,97271.34
2022-08-04T10:15:04.557Z,97267.75
2022-08-04T10:17:58.808Z,97265.06
2022-08-04T10:20:45.999Z,97268.63
2022-08-04T10:23:21.721Z,97267.75
2022-08-04T10:26:07.075Z,97258.78
2022-08-04T10:28:39.196Z,97267.75
2022-08-04T10:31:10.659Z,97268.63
2022-08-04T10:33:43.636Z,97256.94
2022-08-04T10:36:12.160Z,97265.94
2022-08-04T10:38:46.028Z,97257.81
2022-08-04T10:41:14.611Z,97251.53
2022-08-04T10:43:45.676Z,97254.97
2022-08-04T10:46:16.014Z,97254.09
2022-08-04T10:48:48.627Z,97249.56
2022-08-04T10:51:23.061Z,97250.44
2022-08-04T10:53:55.420Z,97246.88
2022-08-04T10:56:30.201Z,97247.72
2022-08-04T10:59:01.483Z,97244.03
2022-08-04T11:02:00.138Z,97249.19
2022-08-04T11:04:28.040Z,97236.50
2022-08-04T11:06:56.873Z,97232.84
2022-08-04T11:09:25.010Z,97234.53
2022-08-04T11:12:00.583Z,97238.09
2022-08-04T11:14:33.310Z,97232.59
2022-08-04T11:17:03.018Z,97228.91
2022-08-04T11:19:44.858Z,97234.31
2022-08-04T11:22:20.078Z,97231.47
2022-08-04T11:24:52.018Z,97234.19
2022-08-04T11:27:26.999Z,97218.97
2022-08-04T11:30:00.214Z,97227.81
2022-08-04T11:32:36.048Z,97222.41
2022-08-04T11:35:08.355Z,97219.56
2022-08-04T11:37:42.692Z,97219.56
2022-08-04T11:40:12.904Z,97216.72
2022-08-04T11:42:42.617Z,97213.88
2022-08-04T11:45:14.510Z,97203.91
2022-08-04T11:47:45.728Z,97205.66
2022-08-04T11:50:20.363Z,97200.97
2022-08-04T11:52:48.490Z,97200.97
2022-08-04T11:55:19.424Z,97200.84
2022-08-04T11:57:54.416Z,97206.09
2022-08-04T12:00:22.680Z,97196.16
2022-08-04T12:03:10.163Z,97195.03
2022-08-04T12:05:50.518Z,97194.03
2022-08-04T12:08:31.025Z,97190.47
2022-08-04T12:11:05.871Z,97194.03
2022-08-04T12:13:38.377Z,97194.91
2022-08-04T12:16:11.972Z,97192.19
2022-08-04T12:18:41.595Z,97187.66
2022-08-04T12:21:14.946Z,97192.06
2022-08-04T12:23:44.316Z,97183.94
2022-08-04T12:26:15.944Z,97190.22
2022-08-04T12:29:09.154Z,97192.91
2022-08-04T12:31:38.021Z,97193.78
2022-08-04T12:34:09.646Z,97191.09
2022-08-04T12:36:41.480Z,97186.50
2022-08-04T12:39:13.161Z,97195.50
2022-08-04T12:41:42.840Z,97185.53
2022-08-04T12:44:36.778Z,97189.09
2022-08-04T12:47:28.526Z,97196.22
2022-08-04T12:50:00.254Z,97183.41
2022-08-04T12:52:59.142Z,97178.59
2022-08-04T12:55:21.420Z,97180.19
2022-08-04T12:57:49.505Z,97175.63
2022-08-04T13:00:29.285Z,97174.78
2022-08-04T13:03:10.064Z,97168.50
2022-08-04T13:05:40.296Z,97170.38
2022-08-04T13:08:09.968Z,97168.50
2022-08-04T13:10:39.468Z,97159.41
2022-08-04T13:13:08.220Z,97163.09
2022-08-04T13:15:47.559Z,97158.41
2022-08-04T13:18:29.665Z,97155.84
2022-08-04T13:20:59.393Z,97161.09
2022-08-04T13:24:19.164Z,97145.75
2022-08-04T13:26:42.822Z,97152.00
2022-08-04T13:29:16.788Z,97142.03
2022-08-04T13:31:45.221Z,97138.34
2022-08-04T13:34:21.456Z,97138.34
2022-08-04T13:36:49.604Z,97135.50
2022-08-04T13:39:20.002Z,97136.38
2022-08-04T13:41:57.029Z,97131.81
2022-08-04T13:44:29.420Z,97136.22
2022-08-04T13:47:00.083Z,97121.72
2022-08-04T13:49:42.890Z,97130.66
2022-08-04T13:52:16.409Z,97132.41
2022-08-04T13:54:47.115Z,97121.56
2022-08-04T13:57:16.936Z,97126.84
2022-08-04T13:59:49.457Z,97115.16
2022-08-04T14:02:34.984Z,97123.16
2022-08-04T14:05:06.091Z,97120.47
2022-08-04T14:07:47.932Z,97122.16
2022-08-04T14:10:17.420Z,97123.03
2022-08-04T14:12:48.865Z,97121.19
2022-08-04T14:16:01.098Z,97121.03
2022-08-04T14:18:23.705Z,97118.31
2022-08-04T14:21:06.761Z,97113.78
2022-08-04T14:23:47.573Z,97115.47
2022-08-04T14:26:19.823Z,97118.19
2022-08-04T14:29:25.475Z,97119.91
2022-08-04T14:31:36.262Z,97116.19
2022-08-04T14:34:27.328Z,97107.94
2022-08-04T14:37:16.761Z,97107.84
2022-08-04T14:40:08.405Z,97102.28
2022-08-04T14:42:43.391Z,97099.56
2022-08-04T14:45:12.227Z,97100.28
2022-08-04T14:47:41.676Z,97100.28
2022-08-04T14:50:21.240Z,97099.28
2022-08-04T14:52:49.347Z,97093.88
2022-08-04T14:55:18.847Z,97092.03
2022-08-04T14:58:35.109Z,97093.78
2022-08-04T15:00:37.263Z,97091.09
2022-08-04T15:03:06.946Z,97083.78
2022-08-04T15:06:02.796Z,97089.22
2022-08-04T15:08:23.215Z,97084.66
2022-08-04T15:10:59.598Z,97086.38
2022-08-04T15:13:29.227Z,97091.81
2022-08-04T15:16:06.248Z,97085.53
2022-08-04T15:18:37.626Z,97094.50
2022-08-04T15:21:07.556Z,97092.63
2022-08-04T15:23:39.801Z,97101.75
2022-08-04T15:26:09.860Z,97090.94
2022-08-04T15:28:40.722Z,97091.81
2022-08-04T15:32:05.698Z,97090.94
2022-08-04T15:33:57.408Z,97080.97
2022-08-04T15:36:31.180Z,97089.94
2022-08-04T15:39:03.122Z,97085.53
2022-08-04T15:41:35.144Z,97072.00
2022-08-04T15:44:27.869Z,97081.94
2022-08-04T15:47:13.335Z,97081.81
2022-08-04T15:49:41.791Z,97080.84
2022-08-04T15:52:12.479Z,97075.28
2022-08-04T15:54:42.449Z,97075.41
2022-08-04T15:57:36.624Z,97075.28
2022-08-04T16:00:12.725Z,97070.72
2022-08-04T16:02:47.004Z,97074.28
2022-08-04T16:05:37.104Z,97068.00
2022-08-04T16:08:17.906Z,97062.59
2022-08-04T16:10:48.199Z,97060.88
2022-08-04T16:13:19.819Z,97064.44
2022-08-04T16:15:50.935Z,97062.75
2022-08-04T16:18:43.693Z,97056.47
2022-08-04T16:21:25.055Z,97056.63
2022-08-04T16:24:15.555Z,97061.03
2022-08-04T16:26:46.288Z,97060.16
2022-08-04T16:29:34.229Z,97057.44
2022-08-04T16:32:13.900Z,97065.72
2022-08-04T16:34:49.833Z,97056.72
2022-08-04T16:37:22.537Z,97059.44
2022-08-04T16:39:51.981Z,97061.31
2022-08-04T16:42:33.679Z,97055.91
2022-08-04T16:45:02.461Z,97063.00
2022-08-04T16:48:04.131Z,97061.31
2022-08-04T16:50:32.521Z,97065.81
2022-08-04T16:53:00.637Z,97061.38
2022-08-04T16:55:29.371Z,97064.97
2022-08-04T16:57:58.815Z,97068.53
2022-08-04T17:00:31.421Z,97063.13
2022-08-04T17:02:59.685Z,97061.38
2022-08-04T17:05:38.767Z,97071.22
2022-08-04T17:08:29.301Z,97068.69
2022-08-04T17:10:56.501Z,97065.09
2022-08-04T17:14:01.151Z,97071.38
2022-08-04T17:16:18.357Z,97074.09
2022-08-04T17:18:47.560Z,97069.66
2022-08-04T17:21:19.900Z,97066.22
2022-08-04T17:24:14.327Z,97060.97
2022-08-04T17:26:39.709Z,97070.06
2022-08-04T17:29:09.515Z,97072.75
2022-08-04T17:31:40.592Z,97069.06
2022-08-04T17:34:15.727Z,97073.47
2022-08-04T17:36:45.649Z,97074.50
2022-08-04T17:39:17.744Z,97080.75
2022-08-04T17:41:48.738Z,97074.34
2022-08-04T17:44:17.878Z,97086.03
2022-08-04T17:46:48.136Z,97083.34
2022-08-04T17:49:23.207Z,97080.63
2022-08-04T17:52:06.651Z,97087.72
2022-08-04T17:54:40.816Z,97086.75
2022-08-04T17:57:15.922Z,97092.16
2022-08-04T17:59:56.969Z,97088.59
2022-08-04T18:02:33.540Z,97096.72
2022-08-04T18:05:10.411Z,97093.16
2022-08-04T18:08:41.500Z,97092.31
2022-08-04T18:10:52.695Z,97093.28
2022-08-04T18:13:25.433Z,97092.44
2022-08-04T18:16:02.612Z,97089.72
2022-08-04T18:18:31.027Z,97093.28
2022-08-04T18:21:02.641Z,97093.28
2022-08-04T18:23:33.632Z,97104.13
2022-08-04T18:26:03.839Z,97101.25
2022-08-04T18:28:33.100Z,97109.28
2022-08-04T18:31:02.329Z,97101.97
2022-08-04T18:33:39.918Z,97102.84
2022-08-04T18:36:34.314Z,97114.53
2022-08-04T18:39:12.575Z,97110.09
2022-08-04T18:42:03.844Z,97129.06
2022-08-04T18:44:31.467Z,97132.63
2022-08-04T18:47:18.939Z,97134.47
2022-08-04T18:50:40.193Z,97131.75
2022-08-04T18:52:36.323Z,97130.94
2022-08-04T18:55:55.280Z,97137.31
2022-08-04T18:58:06.077Z,97142.16
2022-08-04T19:00:45.660Z,97140.56
2022-08-04T19:03:16.605Z,97141.56
2022-08-04T19:05:51.780Z,97147.81
2022-08-04T19:08:33.381Z,97150.66
2022-08-04T19:11:36.959Z,97148.97
2022-08-04T19:13:58.335Z,97158.91
2022-08-04T19:16:27.581Z,97158.06
2022-08-04T19:18:56.849Z,97158.91
2022-08-04T19:21:59.519Z,97160.75
2022-08-04T19:24:32.864Z,97167.03
2022-08-04T19:27:06.944Z,97172.44
2022-08-04T19:29:40.560Z,97171.59
2022-08-04T19:32:14.475Z,97174.28
2022-08-04T19:34:46.014Z,97176.13
2022-08-04T19:37:57.816Z,97178.00
2022-08-04T19:40:06.074Z,97182.56
2022-08-04T19:42:35.537Z,97173.56
2022-08-04T19:45:03.684Z,97180.72
2022-08-04T19:48:17.513Z,97181.69
2022-08-04T19:50:19.936Z,97185.25
2022-08-04T19:52:52.555Z,97187.09
2022-08-04T19:55:22.500Z,97195.22
2022-08-04T19:57:53.103Z,97188.09
2022-08-04T20:00:33.199Z,97197.91
2022-08-04T20:03:02.645Z,97197.06
2022-08-04T20:05:54.585Z,97199.75
2022-08-04T20:08:19.176Z,97192.66
2022-08-04T20:10:52.004Z,97197.19
2022-08-04T20:13:21.869Z,97194.50
2022-08-04T20:15:57.921Z,97199.03
2022-08-04T20:21:19.676Z,97201.75
2022-08-04T20:23:52.729Z,97205.44
2022-08-04T20:26:20.960Z,97201.00
2022-08-04T20:28:51.764Z,97200.19
2022-08-04T20:31:20.797Z,97203.88
2022-08-04T20:33:53.726Z,97205.69
2022-08-04T20:36:23.240Z,97213.00
2022-08-04T20:38:52.852Z,97216.66
2022-08-04T20:41:21.319Z,97216.66
2022-08-04T20:43:50.994Z,97218.50
2022-08-04T20:46:29.280Z,97216.81
2022-08-04T20:48:58.121Z,97217.78
2022-08-04T20:51:31.520Z,97211.41
2022-08-04T20:54:01.375Z,97210.53
2022-08-04T20:56:31.521Z,97213.22
2022-08-04T20:59:01.267Z,97216.94
2022-08-04T21:01:35.836Z,97214.25
2022-08-04T21:04:27.977Z,97218.66
2022-08-04T21:06:58.219Z,97220.47
2022-08-04T21:09:37.280Z,97213.22
2022-08-04T21:12:10.909Z,97223.19
2022-08-04T21:15:00.245Z,97229.59
2022-08-04T21:17:58.206Z,97226.91
2022-08-04T21:20:27.855Z,97221.63
2022-08-04T21:23:01.632Z,97225.16
2022-08-04T21:25:30.745Z,97223.47
2022-08-04T21:28:04.471Z,97227.03
2022-08-04T21:30:52.586Z,97222.47
2022-08-04T21:33:22.155Z,97217.06
2022-08-04T21:35:54.363Z,97225.16
2022-08-04T21:38:27.898Z,97226.19
2022-08-04T21:40:57.363Z,97231.59
2022-08-04T21:43:27.484Z,97222.59
2022-08-04T21:46:03.839Z,97222.59
2022-08-04T21:48:33.075Z,97223.59
2022-08-04T21:51:58.542Z,97224.47
2022-08-04T21:54:02.998Z,97225.44
2022-08-04T21:56:31.565Z,97223.75
2022-08-04T21:59:00.132Z,97222.88
2022-08-04T22:01:52.102Z,97223.75
2022-08-04T22:04:18.797Z,97216.59
2022-08-04T22:06:47.611Z,97217.59
2022-08-04T22:09:21.932Z,97224.84
2022-08-04T22:11:51.523Z,97224.84
2022-08-04T22:14:29.389Z,97216.88
2022-08-04T22:17:03.998Z,97221.28
2022-08-04T22:22:25.946Z,97224.00
2022-08-04T22:24:55.481Z,97224.13
2022-08-04T22:27:47.627Z,97227.69
2022-08-04T22:30:23.928Z,97221.44
2022-08-04T22:32:53.536Z,97219.69
2022-08-04T22:35:36.106Z,97223.25
2022-08-04T22:38:20.562Z,97222.41
2022-08-04T22:40:57.636Z,97222.53
2022-08-04T22:43:31.780Z,97226.25
2022-08-04T22:46:03.936Z,97222.69
2022-08-04T22:48:34.064Z,97224.50
2022-08-04T22:51:02.829Z,97219.25
2022-08-04T22:53:31.736Z,97221.09
2022-08-04T22:56:09.327Z,97229.19
2022-08-04T22:58:40.807Z,97214.81
2022-08-04T23:01:15.257Z,97222.09
2022-08-04T23:03:50.988Z,97219.38
2022-08-04T23:06:24.636Z,97217.66
2022-08-04T23:08:52.822Z,97212.25
2022-08-04T23:11:21.849Z,97214.06
2022-08-04T23:13:50.488Z,97213.25
2022-08-04T23:16:19.125Z,97209.69
2022-08-04T23:18:49.440Z,97212.38
2022-08-04T23:21:24.304Z,97211.38
2022-08-04T23:24:00.848Z,97211.50
2022-08-04T23:26:30.925Z,97210.66
2022-08-04T23:28:59.152Z,97208.81
2022-08-04T23:31:41.597Z,97212.50
2022-08-04T23:34:18.691Z,97208.09
2022-08-04T23:36:47.480Z,97206.25
2022-08-04T23:39:15.930Z,97205.38
2022-08-04T23:41:53.986Z,97199.97
2022-08-04T23:44:26.819Z,97203.69
2022-08-04T23:47:00.031Z,97196.41
2022-08-04T23:49:44.515Z,97199.09
2022-08-04T23:52:23.224Z,97188.41
2022-08-04T23:54:58.390Z,97193.81
2022-08-04T23:57:30.787Z,97188.41
